sensor_id;sensor_type;location;lat;lon;timestamp;temperature;humidity
5154;DHT22;2595;53.584;10.084;2022-08-06T00:01:50;16.80;99.90
5154;DHT22;2595;53.584;10.084;2022-08-06T00:04:17;16.70;99.90
5154;DHT22;2595;53.584;10.084;2022-08-06T00:06:43;16.80;99.90
5154;DHT22;2595;53.584;10.084;2022-08-06T00:09:08;16.80;99.90
5154;DHT22;2595;53.584;10.084;2022-08-06T00:11:36;16.80;99.90
5154;DHT22;2595;53.584;10.084;2022-08-06T00:14:02;16.80;99.90
5154;DHT22;2595;53.584;10.084;2022-08-06T00:16:27;16.80;99.90
5154;DHT22;2595;53.584;10.084;2022-08-06T00:18:53;16.80;99.90
5154;DHT22;2595;53.584;10.084;2022-08-06T00:21:19;16.70;99.90
5154;DHT22;2595;53.584;10.084;2022-08-06T00:23:44;16.70;99.90
5154;DHT22;2595;53.584;10.084;2022-08-06T00:26:10;16.60;99.90
5154;DHT22;2595;53.584;10.084;2022-08-06T00:28:36;16.60;99.90
5154;DHT22;2595;53.584;10.084;2022-08-06T00:31:03;16.60;99.90
5154;DHT22;2595;53.584;10.084;2022-08-06T00:33:29;16.60;99.90
5154;DHT22;2595;53.584;10.084;2022-08-06T00:35:55;16.60;99.90
5154;DHT22;2595;53.584;10.084;2022-08-06T00:38:20;16.60;99.90
5154;DHT22;2595;53.584;10.084;2022-08-06T00:40:46;16.60;99.90
5154;DHT22;2595;53.584;10.084;2022-08-06T00:43:12;16.60;99.90
5154;DHT22;2595;53.584;10.084;2022-08-06T00:45:38;16.60;99.90
5154;DHT22;2595;53.584;10.084;2022-08-06T00:48:04;16.50;99.90
5154;DHT22;2595;53.584;10.084;2022-08-06T00:50:30;16.50;99.90
5154;DHT22;2595;53.584;10.084;2022-08-06T00:52:56;16.50;99.90
5154;DHT22;2595;53.584;10.084;2022-08-06T00:55:22;16.50;99.90
5154;DHT22;2595;53.584;10.084;2022-08-06T00:57:47;16.40;99.90
5154;DHT22;2595;53.584;10.084;2022-08-06T01:00:13;16.40;99.90
5154;DHT22;2595;53.584;10.084;2022-08-06T01:02:39;16.40;99.90
5154;DHT22;2595;53.584;10.084;2022-08-06T01:05:05;16.40;99.90
5154;DHT22;2595;53.584;10.084;2022-08-06T01:07:31;16.40;99.90
5154;DHT22;2595;53.584;10.084;2022-08-06T01:09:56;16.30;99.90
5154;DHT22;2595;53.584;10.084;2022-08-06T01:12:22;16.30;99.90
5154;DHT22;2595;53.584;10.084;2022-08-06T01:14:48;16.30;99.90
5154;DHT22;2595;53.584;10.084;2022-08-06T01:17:24;16.30;99.90
5154;DHT22;2595;53.584;10.084;2022-08-06T01:19:58;16.20;99.90
5154;DHT22;2595;53.584;10.084;2022-08-06T01:22:42;16.20;99.90
5154;DHT22;2595;53.584;10.084;2022-08-06T01:28:10;16.30;99.90
5154;DHT22;2595;53.584;10.084;2022-08-06T01:30:45;16.20;99.90
5154;DHT22;2595;53.584;10.084;2022-08-06T01:33:17;16.20;99.90
5154;DHT22;2595;53.584;10.084;2022-08-06T01:35:51;16.20;99.90
5154;DHT22;2595;53.584;10.084;2022-08-06T01:40:47;16.10;99.90
5154;DHT22;2595;53.584;10.084;2022-08-06T01:43:16;16.10;99.90
5154;DHT22;2595;53.584;10.084;2022-08-06T01:45:45;16.00;99.90
5154;DHT22;2595;53.584;10.084;2022-08-06T01:48:18;16.00;99.90
5154;DHT22;2595;53.584;10.084;2022-08-06T01:50:47;16.00;99.90
5154;DHT22;2595;53.584;10.084;2022-08-06T01:53:17;15.90;99.90
5154;DHT22;2595;53.584;10.084;2022-08-06T01:55:47;16.00;99.90
5154;DHT22;2595;53.584;10.084;2022-08-06T01:58:16;15.90;99.90
5154;DHT22;2595;53.584;10.084;2022-08-06T02:00:45;15.80;99.90
5154;DHT22;2595;53.584;10.084;2022-08-06T02:03:19;15.90;99.90
5154;DHT22;2595;53.584;10.084;2022-08-06T02:05:47;15.90;99.90
5154;DHT22;2595;53.584;10.084;2022-08-06T02:08:15;15.90;99.90
5154;DHT22;2595;53.584;10.084;2022-08-06T02:10:44;15.90;99.90
5154;DHT22;2595;53.584;10.084;2022-08-06T02:13:12;15.90;99.90
5154;DHT22;2595;53.584;10.084;2022-08-06T02:15:38;15.80;99.90
5154;DHT22;2595;53.584;10.084;2022-08-06T02:18:05;15.80;99.90
5154;DHT22;2595;53.584;10.084;2022-08-06T02:20:36;15.70;99.90
5154;DHT22;2595;53.584;10.084;2022-08-06T02:23:06;15.70;99.90
5154;DHT22;2595;53.584;10.084;2022-08-06T02:25:33;15.70;99.90
5154;DHT22;2595;53.584;10.084;2022-08-06T02:28:02;15.70;99.90
5154;DHT22;2595;53.584;10.084;2022-08-06T02:30:32;15.70;99.90
5154;DHT22;2595;53.584;10.084;2022-08-06T02:32:59;15.70;99.90
5154;DHT22;2595;53.584;10.084;2022-08-06T02:35:25;15.70;99.90
5154;DHT22;2595;53.584;10.084;2022-08-06T02:37:59;15.60;99.90
5154;DHT22;2595;53.584;10.084;2022-08-06T02:40:33;15.60;99.90
5154;DHT22;2595;53.584;10.084;2022-08-06T02:43:22;15.50;99.90
5154;DHT22;2595;53.584;10.084;2022-08-06T02:45:59;15.50;99.90
5154;DHT22;2595;53.584;10.084;2022-08-06T02:48:36;15.50;99.90
5154;DHT22;2595;53.584;10.084;2022-08-06T02:51:08;15.50;99.90
5154;DHT22;2595;53.584;10.084;2022-08-06T02:53:43;15.40;99.90
5154;DHT22;2595;53.584;10.084;2022-08-06T02:56:12;15.40;99.90
5154;DHT22;2595;53.584;10.084;2022-08-06T02:58:47;15.40;99.90
5154;DHT22;2595;53.584;10.084;2022-08-06T03:01:18;15.30;99.90
5154;DHT22;2595;53.584;10.084;2022-08-06T03:03:46;15.30;99.90
5154;DHT22;2595;53.584;10.084;2022-08-06T03:06:14;15.30;99.90
5154;DHT22;2595;53.584;10.084;2022-08-06T03:08:41;15.30;99.90
5154;DHT22;2595;53.584;10.084;2022-08-06T03:11:09;15.30;99.90
5154;DHT22;2595;53.584;10.084;2022-08-06T03:13:36;15.20;99.90
5154;DHT22;2595;53.584;10.084;2022-08-06T03:16:03;15.20;99.90
5154;DHT22;2595;53.584;10.084;2022-08-06T03:18:30;15.20;99.90
5154;DHT22;2595;53.584;10.084;2022-08-06T03:20:58;15.20;99.90
5154;DHT22;2595;53.584;10.084;2022-08-06T03:23:26;15.30;99.90
5154;DHT22;2595;53.584;10.084;2022-08-06T03:25:52;15.30;99.90
5154;DHT22;2595;53.584;10.084;2022-08-06T03:28:18;15.30;99.90
5154;DHT22;2595;53.584;10.084;2022-08-06T03:30:45;15.30;99.90
5154;DHT22;2595;53.584;10.084;2022-08-06T03:33:14;15.30;99.90
5154;DHT22;2595;53.584;10.084;2022-08-06T03:35:41;15.30;99.90
5154;DHT22;2595;53.584;10.084;2022-08-06T03:38:08;15.30;99.90
5154;DHT22;2595;53.584;10.084;2022-08-06T03:40:36;15.20;99.90
5154;DHT22;2595;53.584;10.084;2022-08-06T03:43:03;15.20;99.90
5154;DHT22;2595;53.584;10.084;2022-08-06T03:45:30;15.10;99.90
5154;DHT22;2595;53.584;10.084;2022-08-06T03:47:58;15.10;99.90
5154;DHT22;2595;53.584;10.084;2022-08-06T03:50:32;15.10;99.90
5154;DHT22;2595;53.584;10.084;2022-08-06T03:53:13;15.10;99.90
5154;DHT22;2595;53.584;10.084;2022-08-06T03:55:41;15.10;99.90
5154;DHT22;2595;53.584;10.084;2022-08-06T03:58:11;15.10;99.90
5154;DHT22;2595;53.584;10.084;2022-08-06T04:00:45;15.10;99.90
5154;DHT22;2595;53.584;10.084;2022-08-06T04:03:12;15.10;99.90
5154;DHT22;2595;53.584;10.084;2022-08-06T04:05:40;15.10;99.90
5154;DHT22;2595;53.584;10.084;2022-08-06T04:08:07;15.00;99.90
5154;DHT22;2595;53.584;10.084;2022-08-06T04:10:45;15.10;99.90
5154;DHT22;2595;53.584;10.084;2022-08-06T04:13:16;15.10;99.90
5154;DHT22;2595;53.584;10.084;2022-08-06T04:15:43;15.00;99.90
5154;DHT22;2595;53.584;10.084;2022-08-06T04:18:11;15.10;99.90
5154;DHT22;2595;53.584;10.084;2022-08-06T04:20:40;15.00;99.90
5154;DHT22;2595;53.584;10.084;2022-08-06T04:23:06;15.00;99.90
5154;DHT22;2595;53.584;10.084;2022-08-06T04:25:38;15.00;99.90
5154;DHT22;2595;53.584;10.084;2022-08-06T04:28:06;15.00;99.90
5154;DHT22;2595;53.584;10.084;2022-08-06T04:30:33;15.00;99.90
5154;DHT22;2595;53.584;10.084;2022-08-06T04:33:04;15.00;99.90
5154;DHT22;2595;53.584;10.084;2022-08-06T04:35:30;15.00;99.90
5154;DHT22;2595;53.584;10.084;2022-08-06T04:37:57;15.00;99.90
5154;DHT22;2595;53.584;10.084;2022-08-06T04:40:25;15.00;99.90
5154;DHT22;2595;53.584;10.084;2022-08-06T04:42:51;15.10;99.90
5154;DHT22;2595;53.584;10.084;2022-08-06T04:45:17;15.20;99.90
5154;DHT22;2595;53.584;10.084;2022-08-06T04:47:43;15.20;99.90
5154;DHT22;2595;53.584;10.084;2022-08-06T04:50:10;15.20;99.90
5154;DHT22;2595;53.584;10.084;2022-08-06T04:52:36;15.30;99.90
5154;DHT22;2595;53.584;10.084;2022-08-06T04:55:02;15.30;99.90
5154;DHT22;2595;53.584;10.084;2022-08-06T04:57:28;15.30;99.90
5154;DHT22;2595;53.584;10.084;2022-08-06T04:59:54;15.40;99.90
5154;DHT22;2595;53.584;10.084;2022-08-06T05:02:20;15.40;99.90
5154;DHT22;2595;53.584;10.084;2022-08-06T05:04:46;15.50;99.90
5154;DHT22;2595;53.584;10.084;2022-08-06T05:07:19;15.60;99.90
5154;DHT22;2595;53.584;10.084;2022-08-06T05:09:45;15.60;99.90
5154;DHT22;2595;53.584;10.084;2022-08-06T05:12:33;15.60;99.90
5154;DHT22;2595;53.584;10.084;2022-08-06T05:17:41;15.70;99.90
5154;DHT22;2595;53.584;10.084;2022-08-06T05:20:16;15.70;99.90
5154;DHT22;2595;53.584;10.084;2022-08-06T05:22:44;15.80;99.90
5154;DHT22;2595;53.584;10.084;2022-08-06T05:25:10;15.80;99.90
5154;DHT22;2595;53.584;10.084;2022-08-06T05:27:36;15.80;99.90
5154;DHT22;2595;53.584;10.084;2022-08-06T05:30:03;15.90;99.90
5154;DHT22;2595;53.584;10.084;2022-08-06T05:32:29;15.90;99.90
5154;DHT22;2595;53.584;10.084;2022-08-06T05:34:55;15.90;99.90
5154;DHT22;2595;53.584;10.084;2022-08-06T05:37:20;15.90;99.90
5154;DHT22;2595;53.584;10.084;2022-08-06T05:39:46;16.00;99.90
5154;DHT22;2595;53.584;10.084;2022-08-06T05:42:11;16.00;99.90
5154;DHT22;2595;53.584;10.084;2022-08-06T05:44:37;16.00;99.90
5154;DHT22;2595;53.584;10.084;2022-08-06T05:47:07;16.10;99.90
5154;DHT22;2595;53.584;10.084;2022-08-06T05:49:45;16.10;99.90
5154;DHT22;2595;53.584;10.084;2022-08-06T05:52:47;16.20;99.90
5154;DHT22;2595;53.584;10.084;2022-08-06T05:57:56;16.30;99.90
5154;DHT22;2595;53.584;10.084;2022-08-06T06:00:28;16.40;99.90
5154;DHT22;2595;53.584;10.084;2022-08-06T06:02:55;16.40;99.90
5154;DHT22;2595;53.584;10.084;2022-08-06T06:05:23;16.50;99.90
5154;DHT22;2595;53.584;10.084;2022-08-06T06:07:49;16.50;99.90
5154;DHT22;2595;53.584;10.084;2022-08-06T06:10:16;16.50;99.90
5154;DHT22;2595;53.584;10.084;2022-08-06T06:12:42;16.50;99.90
5154;DHT22;2595;53.584;10.084;2022-08-06T06:15:11;16.50;99.90
5154;DHT22;2595;53.584;10.084;2022-08-06T06:17:51;16.50;99.90
5154;DHT22;2595;53.584;10.084;2022-08-06T06:31:02;16.70;99.90
5154;DHT22;2595;53.584;10.084;2022-08-06T06:39:30;16.70;99.90
5154;DHT22;2595;53.584;10.084;2022-08-06T06:42:23;16.70;99.90
5154;DHT22;2595;53.584;10.084;2022-08-06T06:45:14;16.60;99.90
5154;DHT22;2595;53.584;10.084;2022-08-06T06:47:49;16.60;99.90
5154;DHT22;2595;53.584;10.084;2022-08-06T06:50:22;16.60;99.90
5154;DHT22;2595;53.584;10.084;2022-08-06T06:52:51;16.60;99.90
5154;DHT22;2595;53.584;10.084;2022-08-06T06:55:37;16.70;99.90
5154;DHT22;2595;53.584;10.084;2022-08-06T06:58:06;16.70;99.90
5154;DHT22;2595;53.584;10.084;2022-08-06T07:00:33;16.80;99.90
5154;DHT22;2595;53.584;10.084;2022-08-06T07:03:00;16.80;99.90
5154;DHT22;2595;53.584;10.084;2022-08-06T07:05:28;16.80;99.90
5154;DHT22;2595;53.584;10.084;2022-08-06T07:07:55;16.80;99.90
5154;DHT22;2595;53.584;10.084;2022-08-06T07:10:23;16.90;99.90
5154;DHT22;2595;53.584;10.084;2022-08-06T07:12:50;16.90;99.90
5154;DHT22;2595;53.584;10.084;2022-08-06T07:15:16;16.90;99.90
5154;DHT22;2595;53.584;10.084;2022-08-06T07:17:44;16.90;99.90
5154;DHT22;2595;53.584;10.084;2022-08-06T07:20:12;16.90;99.90
5154;DHT22;2595;53.584;10.084;2022-08-06T07:22:41;17.00;99.90
5154;DHT22;2595;53.584;10.084;2022-08-06T07:25:10;17.00;99.90
5154;DHT22;2595;53.584;10.084;2022-08-06T07:27:44;17.10;99.90
5154;DHT22;2595;53.584;10.084;2022-08-06T07:30:15;17.10;99.90
5154;DHT22;2595;53.584;10.084;2022-08-06T07:32:42;17.10;99.90
5154;DHT22;2595;53.584;10.084;2022-08-06T07:35:09;17.20;99.90
5154;DHT22;2595;53.584;10.084;2022-08-06T07:37:37;17.20;99.90
5154;DHT22;2595;53.584;10.084;2022-08-06T07:40:09;17.20;99.90
5154;DHT22;2595;53.584;10.084;2022-08-06T07:42:37;17.20;99.90
5154;DHT22;2595;53.584;10.084;2022-08-06T07:45:07;17.30;99.90
5154;DHT22;2595;53.584;10.084;2022-08-06T07:47:40;17.40;99.90
5154;DHT22;2595;53.584;10.084;2022-08-06T07:50:09;17.50;99.90
5154;DHT22;2595;53.584;10.084;2022-08-06T07:52:35;17.50;99.90
5154;DHT22;2595;53.584;10.084;2022-08-06T07:55:02;17.60;99.90
5154;DHT22;2595;53.584;10.084;2022-08-06T07:57:28;17.70;99.90
5154;DHT22;2595;53.584;10.084;2022-08-06T07:59:55;17.60;99.90
5154;DHT22;2595;53.584;10.084;2022-08-06T08:02:22;17.70;99.90
5154;DHT22;2595;53.584;10.084;2022-08-06T08:04:48;17.60;99.90
5154;DHT22;2595;53.584;10.084;2022-08-06T08:07:33;17.60;99.90
5154;DHT22;2595;53.584;10.084;2022-08-06T08:10:00;17.60;99.90
5154;DHT22;2595;53.584;10.084;2022-08-06T08:12:26;17.60;99.90
5154;DHT22;2595;53.584;10.084;2022-08-06T08:14:52;17.50;99.90
5154;DHT22;2595;53.584;10.084;2022-08-06T08:17:18;17.60;99.90
5154;DHT22;2595;53.584;10.084;2022-08-06T08:19:44;17.60;99.90
5154;DHT22;2595;53.584;10.084;2022-08-06T08:22:15;17.60;99.90
5154;DHT22;2595;53.584;10.084;2022-08-06T08:24:43;17.60;99.90
5154;DHT22;2595;53.584;10.084;2022-08-06T08:27:10;17.70;99.90
5154;DHT22;2595;53.584;10.084;2022-08-06T08:29:37;17.70;99.90
5154;DHT22;2595;53.584;10.084;2022-08-06T08:32:04;17.70;99.90
5154;DHT22;2595;53.584;10.084;2022-08-06T08:34:30;17.70;99.90
5154;DHT22;2595;53.584;10.084;2022-08-06T08:36:56;17.70;99.90
5154;DHT22;2595;53.584;10.084;2022-08-06T08:39:22;17.70;99.90
5154;DHT22;2595;53.584;10.084;2022-08-06T08:41:51;17.70;99.90
5154;DHT22;2595;53.584;10.084;2022-08-06T08:44:23;17.70;99.90
5154;DHT22;2595;53.584;10.084;2022-08-06T08:46:50;17.70;99.90
5154;DHT22;2595;53.584;10.084;2022-08-06T08:49:34;17.80;99.90
5154;DHT22;2595;53.584;10.084;2022-08-06T08:52:02;17.80;99.90
5154;DHT22;2595;53.584;10.084;2022-08-06T08:54:30;17.80;99.90
5154;DHT22;2595;53.584;10.084;2022-08-06T08:56:56;17.90;99.90
5154;DHT22;2595;53.584;10.084;2022-08-06T08:59:23;17.90;99.90
5154;DHT22;2595;53.584;10.084;2022-08-06T09:01:49;17.90;99.90
5154;DHT22;2595;53.584;10.084;2022-08-06T09:04:15;18.00;99.90
5154;DHT22;2595;53.584;10.084;2022-08-06T09:06:41;18.00;99.90
5154;DHT22;2595;53.584;10.084;2022-08-06T09:09:07;18.00;99.90
5154;DHT22;2595;53.584;10.084;2022-08-06T09:11:34;18.10;99.90
5154;DHT22;2595;53.584;10.084;2022-08-06T09:14:05;18.10;99.90
5154;DHT22;2595;53.584;10.084;2022-08-06T09:16:32;18.10;99.90
5154;DHT22;2595;53.584;10.084;2022-08-06T09:18:59;18.10;99.90
5154;DHT22;2595;53.584;10.084;2022-08-06T09:21:26;18.10;99.90
5154;DHT22;2595;53.584;10.084;2022-08-06T09:23:51;18.20;99.90
5154;DHT22;2595;53.584;10.084;2022-08-06T09:26:17;18.20;99.90
5154;DHT22;2595;53.584;10.084;2022-08-06T09:28:43;18.20;99.90
5154;DHT22;2595;53.584;10.084;2022-08-06T09:31:14;18.30;99.90
5154;DHT22;2595;53.584;10.084;2022-08-06T09:33:52;18.30;99.90
5154;DHT22;2595;53.584;10.084;2022-08-06T09:36:19;18.40;99.90
5154;DHT22;2595;53.584;10.084;2022-08-06T09:38:51;18.50;99.90
5154;DHT22;2595;53.584;10.084;2022-08-06T09:41:20;18.50;99.90
5154;DHT22;2595;53.584;10.084;2022-08-06T09:43:48;18.50;99.90
5154;DHT22;2595;53.584;10.084;2022-08-06T09:46:14;18.60;99.90
5154;DHT22;2595;53.584;10.084;2022-08-06T09:48:59;18.60;99.90
5154;DHT22;2595;53.584;10.084;2022-08-06T09:51:25;18.70;99.90
5154;DHT22;2595;53.584;10.084;2022-08-06T09:53:56;18.70;99.90
5154;DHT22;2595;53.584;10.084;2022-08-06T09:56:22;18.70;99.90
5154;DHT22;2595;53.584;10.084;2022-08-06T09:58:48;18.80;99.90
5154;DHT22;2595;53.584;10.084;2022-08-06T10:01:16;18.90;99.90
5154;DHT22;2595;53.584;10.084;2022-08-06T10:03:42;18.90;99.90
5154;DHT22;2595;53.584;10.084;2022-08-06T10:06:14;18.90;99.90
5154;DHT22;2595;53.584;10.084;2022-08-06T10:08:40;18.80;99.90
5154;DHT22;2595;53.584;10.084;2022-08-06T10:11:06;18.90;99.90
5154;DHT22;2595;53.584;10.084;2022-08-06T10:13:33;18.90;99.90
5154;DHT22;2595;53.584;10.084;2022-08-06T10:16:02;18.90;99.90
5154;DHT22;2595;53.584;10.084;2022-08-06T10:18:41;18.80;99.90
5154;DHT22;2595;53.584;10.084;2022-08-06T10:21:18;18.80;99.90
5154;DHT22;2595;53.584;10.084;2022-08-06T10:23:49;18.70;99.90
5154;DHT22;2595;53.584;10.084;2022-08-06T10:26:26;18.70;99.90
5154;DHT22;2595;53.584;10.084;2022-08-06T10:28:52;18.70;99.90
5154;DHT22;2595;53.584;10.084;2022-08-06T10:31:19;18.70;99.90
5154;DHT22;2595;53.584;10.084;2022-08-06T10:33:54;18.70;99.90
5154;DHT22;2595;53.584;10.084;2022-08-06T10:36:39;18.80;99.90
5154;DHT22;2595;53.584;10.084;2022-08-06T10:39:06;18.90;99.90
5154;DHT22;2595;53.584;10.084;2022-08-06T10:41:33;19.00;99.90
5154;DHT22;2595;53.584;10.084;2022-08-06T10:44:01;19.10;99.90
5154;DHT22;2595;53.584;10.084;2022-08-06T10:46:27;19.30;99.90
5154;DHT22;2595;53.584;10.084;2022-08-06T10:48:53;19.90;99.90
5154;DHT22;2595;53.584;10.084;2022-08-06T10:51:20;20.90;99.90
5154;DHT22;2595;53.584;10.084;2022-08-06T10:53:46;21.20;99.90
5154;DHT22;2595;53.584;10.084;2022-08-06T10:56:14;21.00;99.90
5154;DHT22;2595;53.584;10.084;2022-08-06T10:58:40;20.70;99.90
5154;DHT22;2595;53.584;10.084;2022-08-06T11:07:00;19.80;99.90
5154;DHT22;2595;53.584;10.084;2022-08-06T11:12:43;19.50;99.90
5154;DHT22;2595;53.584;10.084;2022-08-06T11:15:10;19.50;99.90
5154;DHT22;2595;53.584;10.084;2022-08-06T11:17:47;19.60;99.90
5154;DHT22;2595;53.584;10.084;2022-08-06T11:23:00;20.10;99.90
5154;DHT22;2595;53.584;10.084;2022-08-06T11:25:46;20.30;99.90
5154;DHT22;2595;53.584;10.084;2022-08-06T11:28:13;20.50;99.90
5154;DHT22;2595;53.584;10.084;2022-08-06T11:30:44;20.60;99.90
5154;DHT22;2595;53.584;10.084;2022-08-06T11:33:12;20.70;99.90
5154;DHT22;2595;53.584;10.084;2022-08-06T11:35:44;20.80;99.90
5154;DHT22;2595;53.584;10.084;2022-08-06T11:38:13;20.80;99.90
5154;DHT22;2595;53.584;10.084;2022-08-06T11:51:56;20.50;99.90
5154;DHT22;2595;53.584;10.084;2022-08-06T11:54:27;20.60;99.90
5154;DHT22;2595;53.584;10.084;2022-08-06T12:07:40;21.20;99.90
5154;DHT22;2595;53.584;10.084;2022-08-06T12:17:30;20.90;97.30
5154;DHT22;2595;53.584;10.084;2022-08-06T12:19:58;20.90;96.70
5154;DHT22;2595;53.584;10.084;2022-08-06T12:22:26;21.00;96.80
5154;DHT22;2595;53.584;10.084;2022-08-06T12:24:54;21.10;97.60
5154;DHT22;2595;53.584;10.084;2022-08-06T12:27:21;21.20;98.20
5154;DHT22;2595;53.584;10.084;2022-08-06T12:29:53;21.10;96.90
5154;DHT22;2595;53.584;10.084;2022-08-06T12:32:29;21.10;97.30
5154;DHT22;2595;53.584;10.084;2022-08-06T12:35:09;21.00;98.40
5154;DHT22;2595;53.584;10.084;2022-08-06T12:37:39;21.00;98.00
5154;DHT22;2595;53.584;10.084;2022-08-06T12:40:10;21.10;96.50
5154;DHT22;2595;53.584;10.084;2022-08-06T12:45:31;21.40;96.40
5154;DHT22;2595;53.584;10.084;2022-08-06T12:50:33;21.60;95.90
5154;DHT22;2595;53.584;10.084;2022-08-06T12:53:14;21.80;95.00
5154;DHT22;2595;53.584;10.084;2022-08-06T12:55:54;21.90;96.60
5154;DHT22;2595;53.584;10.084;2022-08-06T12:58:35;21.90;94.10
5154;DHT22;2595;53.584;10.084;2022-08-06T13:01:02;22.00;93.50
5154;DHT22;2595;53.584;10.084;2022-08-06T13:03:29;22.20;93.60
5154;DHT22;2595;53.584;10.084;2022-08-06T13:05:59;22.20;93.40
5154;DHT22;2595;53.584;10.084;2022-08-06T13:08:25;22.20;93.10
5154;DHT22;2595;53.584;10.084;2022-08-06T13:10:53;22.30;92.60
5154;DHT22;2595;53.584;10.084;2022-08-06T13:13:20;22.30;92.60
5154;DHT22;2595;53.584;10.084;2022-08-06T13:16:03;22.30;92.30
5154;DHT22;2595;53.584;10.084;2022-08-06T13:18:29;22.40;92.60
5154;DHT22;2595;53.584;10.084;2022-08-06T13:20:56;22.50;90.70
5154;DHT22;2595;53.584;10.084;2022-08-06T13:23:34;22.50;91.30
5154;DHT22;2595;53.584;10.084;2022-08-06T13:26:20;22.50;90.20
5154;DHT22;2595;53.584;10.084;2022-08-06T13:31:29;22.60;86.60
5154;DHT22;2595;53.584;10.084;2022-08-06T13:34:00;22.60;85.80
5154;DHT22;2595;53.584;10.084;2022-08-06T13:36:27;22.60;86.50
5154;DHT22;2595;53.584;10.084;2022-08-06T13:38:53;22.60;86.30
5154;DHT22;2595;53.584;10.084;2022-08-06T13:41:26;22.70;79.70
5154;DHT22;2595;53.584;10.084;2022-08-06T13:43:52;22.70;80.00
5154;DHT22;2595;53.584;10.084;2022-08-06T13:46:19;22.80;86.90
5154;DHT22;2595;53.584;10.084;2022-08-06T13:48:46;22.90;89.90
5154;DHT22;2595;53.584;10.084;2022-08-06T13:51:13;23.00;90.10
5154;DHT22;2595;53.584;10.084;2022-08-06T13:53:39;23.00;90.70
5154;DHT22;2595;53.584;10.084;2022-08-06T13:56:05;23.00;92.10
5154;DHT22;2595;53.584;10.084;2022-08-06T13:58:30;23.00;88.90
5154;DHT22;2595;53.584;10.084;2022-08-06T14:00:57;23.00;90.10
5154;DHT22;2595;53.584;10.084;2022-08-06T14:03:23;23.10;90.60
5154;DHT22;2595;53.584;10.084;2022-08-06T14:05:48;23.10;87.90
5154;DHT22;2595;53.584;10.084;2022-08-06T14:08:14;23.10;86.90
5154;DHT22;2595;53.584;10.084;2022-08-06T14:10:40;23.20;84.90
5154;DHT22;2595;53.584;10.084;2022-08-06T14:13:06;23.20;89.80
5154;DHT22;2595;53.584;10.084;2022-08-06T14:15:49;23.30;88.10
5154;DHT22;2595;53.584;10.084;2022-08-06T14:18:16;23.30;89.90
5154;DHT22;2595;53.584;10.084;2022-08-06T14:20:43;23.40;91.00
5154;DHT22;2595;53.584;10.084;2022-08-06T14:23:09;23.50;90.90
5154;DHT22;2595;53.584;10.084;2022-08-06T14:25:35;23.50;90.30
5154;DHT22;2595;53.584;10.084;2022-08-06T14:28:02;23.60;91.20
5154;DHT22;2595;53.584;10.084;2022-08-06T14:30:28;23.60;92.30
5154;DHT22;2595;53.584;10.084;2022-08-06T14:32:54;23.50;89.90
5154;DHT22;2595;53.584;10.084;2022-08-06T14:35:20;23.50;90.80
5154;DHT22;2595;53.584;10.084;2022-08-06T14:37:46;23.50;92.20
5154;DHT22;2595;53.584;10.084;2022-08-06T14:40:13;23.50;91.60
5154;DHT22;2595;53.584;10.084;2022-08-06T14:42:39;23.50;91.80
5154;DHT22;2595;53.584;10.084;2022-08-06T14:45:24;23.60;92.50
5154;DHT22;2595;53.584;10.084;2022-08-06T14:47:51;23.70;94.20
5154;DHT22;2595;53.584;10.084;2022-08-06T14:50:18;23.80;94.10
5154;DHT22;2595;53.584;10.084;2022-08-06T14:52:44;23.80;94.70
5154;DHT22;2595;53.584;10.084;2022-08-06T14:55:10;23.70;94.70
5154;DHT22;2595;53.584;10.084;2022-08-06T14:57:36;23.40;94.60
5154;DHT22;2595;53.584;10.084;2022-08-06T15:00:07;23.30;94.90
5154;DHT22;2595;53.584;10.084;2022-08-06T15:02:33;23.00;94.60
5154;DHT22;2595;53.584;10.084;2022-08-06T15:04:59;22.90;95.60
5154;DHT22;2595;53.584;10.084;2022-08-06T15:07:25;22.90;95.30
5154;DHT22;2595;53.584;10.084;2022-08-06T15:09:52;22.70;95.90
5154;DHT22;2595;53.584;10.084;2022-08-06T15:12:19;22.80;96.10
5154;DHT22;2595;53.584;10.084;2022-08-06T15:14:44;22.80;96.50
5154;DHT22;2595;53.584;10.084;2022-08-06T15:17:10;22.80;95.80
5154;DHT22;2595;53.584;10.084;2022-08-06T15:19:36;22.80;96.50
5154;DHT22;2595;53.584;10.084;2022-08-06T15:22:02;22.70;95.60
5154;DHT22;2595;53.584;10.084;2022-08-06T15:24:28;22.60;96.60
5154;DHT22;2595;53.584;10.084;2022-08-06T15:26:54;22.50;96.60
5154;DHT22;2595;53.584;10.084;2022-08-06T15:29:21;22.50;96.80
5154;DHT22;2595;53.584;10.084;2022-08-06T15:31:48;22.40;97.10
5154;DHT22;2595;53.584;10.084;2022-08-06T15:34:14;22.30;97.20
5154;DHT22;2595;53.584;10.084;2022-08-06T15:36:40;22.20;96.80
5154;DHT22;2595;53.584;10.084;2022-08-06T15:39:05;22.10;96.80
5154;DHT22;2595;53.584;10.084;2022-08-06T15:41:32;22.10;97.30
5154;DHT22;2595;53.584;10.084;2022-08-06T15:43:58;22.10;97.50
5154;DHT22;2595;53.584;10.084;2022-08-06T15:46:24;22.00;97.10
5154;DHT22;2595;53.584;10.084;2022-08-06T15:48:49;21.90;98.00
5154;DHT22;2595;53.584;10.084;2022-08-06T15:51:15;21.90;98.20
5154;DHT22;2595;53.584;10.084;2022-08-06T15:53:47;21.80;98.60
5154;DHT22;2595;53.584;10.084;2022-08-06T15:56:12;21.80;98.50
5154;DHT22;2595;53.584;10.084;2022-08-06T15:58:38;21.70;98.40
5154;DHT22;2595;53.584;10.084;2022-08-06T16:01:03;21.70;98.80
5154;DHT22;2595;53.584;10.084;2022-08-06T16:03:29;21.70;99.10
5154;DHT22;2595;53.584;10.084;2022-08-06T16:05:54;21.60;98.30
5154;DHT22;2595;53.584;10.084;2022-08-06T16:08:20;21.60;98.60
5154;DHT22;2595;53.584;10.084;2022-08-06T16:10:47;21.50;99.20
5154;DHT22;2595;53.584;10.084;2022-08-06T16:13:15;21.50;99.50
5154;DHT22;2595;53.584;10.084;2022-08-06T16:15:48;21.50;99.10
5154;DHT22;2595;53.584;10.084;2022-08-06T16:18:19;21.50;99.40
5154;DHT22;2595;53.584;10.084;2022-08-06T16:20:45;21.50;99.30
5154;DHT22;2595;53.584;10.084;2022-08-06T16:23:13;21.50;98.50
5154;DHT22;2595;53.584;10.084;2022-08-06T16:25:39;21.50;98.20
5154;DHT22;2595;53.584;10.084;2022-08-06T16:28:05;21.40;97.00
5154;DHT22;2595;53.584;10.084;2022-08-06T16:30:32;21.40;97.30
5154;DHT22;2595;53.584;10.084;2022-08-06T16:32:58;21.40;96.80
5154;DHT22;2595;53.584;10.084;2022-08-06T16:35:23;21.30;96.90
5154;DHT22;2595;53.584;10.084;2022-08-06T16:37:50;21.30;97.20
5154;DHT22;2595;53.584;10.084;2022-08-06T16:40:16;21.20;96.80
5154;DHT22;2595;53.584;10.084;2022-08-06T16:42:42;21.20;96.90
5154;DHT22;2595;53.584;10.084;2022-08-06T16:45:08;21.10;97.10
5154;DHT22;2595;53.584;10.084;2022-08-06T16:47:34;21.10;97.40
5154;DHT22;2595;53.584;10.084;2022-08-06T16:50:00;21.10;97.30
5154;DHT22;2595;53.584;10.084;2022-08-06T16:52:25;21.10;96.90
5154;DHT22;2595;53.584;10.084;2022-08-06T16:54:51;21.10;97.30
5154;DHT22;2595;53.584;10.084;2022-08-06T16:57:17;21.00;96.90
5154;DHT22;2595;53.584;10.084;2022-08-06T16:59:42;21.00;97.20
5154;DHT22;2595;53.584;10.084;2022-08-06T17:02:08;21.00;96.80
5154;DHT22;2595;53.584;10.084;2022-08-06T17:04:52;20.90;96.90
5154;DHT22;2595;53.584;10.084;2022-08-06T17:07:18;20.90;96.40
5154;DHT22;2595;53.584;10.084;2022-08-06T17:09:44;20.90;96.40
5154;DHT22;2595;53.584;10.084;2022-08-06T17:12:09;20.80;96.50